sensor_id;sensor_type;location;lat;lon;timestamp;pressure;altitude;pressure_sealevel;temperature;humidity
38225;BME280;24025;48.138;11.428;2022-08-03T00:00:15;95677.72;;;19.44;65.96
38225;BME280;24025;48.138;11.428;2022-08-03T00:02:45;95685.56;;;19.39;66.54
38225;BME280;24025;48.138;11.428;2022-08-03T00:05:16;95679.03;;;19.36;65.90
38225;BME280;24025;48.138;11.428;2022-08-03T00:07:46;95681.38;;;19.34;65.52
38225;BME280;24025;48.138;11.428;2022-08-03T00:10:17;95678.66;;;19.34;65.74
38225;BME280;24025;48.138;11.428;2022-08-03T00:12:47;95684.09;;;19.34;65.51
38225;BME280;24025;48.138;11.428;2022-08-03T00:15:18;95676.75;;;19.35;66.15
38225;BME280;24025;48.138;11.428;2022-08-03T00:17:48;95678.75;;;19.31;65.68
38225;BME280;24025;48.138;11.428;2022-08-03T00:20:19;95682.63;;;19.30;65.94
38225;BME280;24025;48.138;11.428;2022-08-03T00:22:50;95676.13;;;19.27;65.90
38225;BME280;24025;48.138;11.428;2022-08-03T00:25:21;95678.47;;;19.25;65.90
38225;BME280;24025;48.138;11.428;2022-08-03T00:27:51;95674.66;;;19.22;65.85
38225;BME280;24025;48.138;11.428;2022-08-03T00:30:22;95679.72;;;19.20;65.66
38225;BME280;24025;48.138;11.428;2022-08-03T00:32:52;95676.66;;;19.18;66.16
38225;BME280;24025;48.138;11.428;2022-08-03T00:35:23;95676.28;;;19.16;66.20
38225;BME280;24025;48.138;11.428;2022-08-03T00:37:53;95672.84;;;19.16;65.52
38225;BME280;24025;48.138;11.428;2022-08-03T00:40:24;95677.47;;;19.15;65.67
38225;BME280;24025;48.138;11.428;2022-08-03T00:45:30;95670.28;;;19.09;66.12
38225;BME280;24025;48.138;11.428;2022-08-03T00:48:01;95676.06;;;19.07;66.13
38225;BME280;24025;48.138;11.428;2022-08-03T00:50:38;95667.63;;;19.05;66.70
38225;BME280;24025;48.138;11.428;2022-08-03T00:53:10;95664.91;;;19.05;66.50
38225;BME280;24025;48.138;11.428;2022-08-03T00:55:44;95673.88;;;19.02;66.64
38225;BME280;24025;48.138;11.428;2022-08-03T00:58:14;95668.94;;;18.97;66.74
38225;BME280;24025;48.138;11.428;2022-08-03T01:00:45;95672.50;;;18.90;67.31
38225;BME280;24025;48.138;11.428;2022-08-03T01:03:15;95674.09;;;18.88;67.33
38225;BME280;24025;48.138;11.428;2022-08-03T01:08:27;95671.50;;;18.81;67.59
38225;BME280;24025;48.138;11.428;2022-08-03T01:14:32;95658.84;;;18.78;67.66
38225;BME280;24025;48.138;11.428;2022-08-03T01:16:56;95663.06;;;18.79;67.40
38225;BME280;24025;48.138;11.428;2022-08-03T01:30:44;95655.16;;;18.68;68.47
38225;BME280;24025;48.138;11.428;2022-08-03T01:33:19;95648.97;;;18.67;68.19
38225;BME280;24025;48.138;11.428;2022-08-03T01:36:03;95654.81;;;18.62;68.56
38225;BME280;24025;48.138;11.428;2022-08-03T01:38:43;95648.72;;;18.58;68.47
38225;BME280;24025;48.138;11.428;2022-08-03T01:41:18;95645.66;;;18.56;68.42
38225;BME280;24025;48.138;11.428;2022-08-03T01:43:52;95652.63;;;18.54;69.08
38225;BME280;24025;48.138;11.428;2022-08-03T01:46:24;95647.66;;;18.52;69.00
38225;BME280;24025;48.138;11.428;2022-08-03T01:48:55;95650.00;;;18.50;69.49
38225;BME280;24025;48.138;11.428;2022-08-03T01:51:27;95643.00;;;18.53;68.78
38225;BME280;24025;48.138;11.428;2022-08-03T01:53:59;95640.31;;;18.53;69.24
38225;BME280;24025;48.138;11.428;2022-08-03T01:56:30;95646.53;;;18.50;69.13
38225;BME280;24025;48.138;11.428;2022-08-03T01:59:02;95633.91;;;18.43;69.59
38225;BME280;24025;48.138;11.428;2022-08-03T02:01:34;95643.94;;;18.43;69.46
38225;BME280;24025;48.138;11.428;2022-08-03T02:04:05;95638.53;;;18.43;69.49
38225;BME280;24025;48.138;11.428;2022-08-03T02:06:37;95640.13;;;18.40;69.43
38225;BME280;24025;48.138;11.428;2022-08-03T02:09:11;95644.88;;;18.32;69.68
38225;BME280;24025;48.138;11.428;2022-08-03T02:11:42;95638.81;;;18.25;70.31
38225;BME280;24025;48.138;11.428;2022-08-03T02:14:15;95650.03;;;18.23;70.17
38225;BME280;24025;48.138;11.428;2022-08-03T02:16:46;95648.50;;;18.22;69.97
38225;BME280;24025;48.138;11.428;2022-08-03T02:19:18;95645.81;;;18.22;69.88
38225;BME280;24025;48.138;11.428;2022-08-03T02:21:50;95661.25;;;18.22;70.22
38225;BME280;24025;48.138;11.428;2022-08-03T02:24:20;95644.66;;;18.20;70.10
38225;BME280;24025;48.138;11.428;2022-08-03T02:26:53;95641.28;;;18.16;70.01
38225;BME280;24025;48.138;11.428;2022-08-03T02:29:26;95647.84;;;18.15;70.14
38225;BME280;24025;48.138;11.428;2022-08-03T02:32:00;95649.03;;;18.14;70.48
38225;BME280;24025;48.138;11.428;2022-08-03T02:34:33;95649.06;;;18.10;70.49
38225;BME280;24025;48.138;11.428;2022-08-03T02:37:05;95651.75;;;18.10;70.51
38225;BME280;24025;48.138;11.428;2022-08-03T02:39:37;95646.41;;;18.06;70.98
38225;BME280;24025;48.138;11.428;2022-08-03T02:42:11;95645.72;;;18.02;70.94
38225;BME280;24025;48.138;11.428;2022-08-03T02:44:45;95651.50;;;18.01;70.87
38225;BME280;24025;48.138;11.428;2022-08-03T02:47:18;95650.75;;;18.00;70.59
38225;BME280;24025;48.138;11.428;2022-08-03T02:49:51;95652.25;;;18.01;70.88
38225;BME280;24025;48.138;11.428;2022-08-03T02:52:26;95649.22;;;17.99;70.75
38225;BME280;24025;48.138;11.428;2022-08-03T02:54:59;95653.09;;;17.98;70.80
38225;BME280;24025;48.138;11.428;2022-08-03T02:57:33;95649.28;;;17.96;70.70
38225;BME280;24025;48.138;11.428;2022-08-03T03:00:06;95647.00;;;17.94;71.18
38225;BME280;24025;48.138;11.428;2022-08-03T03:02:38;95645.50;;;17.90;71.08
38225;BME280;24025;48.138;11.428;2022-08-03T03:05:10;95647.44;;;17.89;71.03
38225;BME280;24025;48.138;11.428;2022-08-03T03:07:42;95642.44;;;17.88;71.07
38225;BME280;24025;48.138;11.428;2022-08-03T03:10:13;95644.72;;;17.89;71.34
38225;BME280;24025;48.138;11.428;2022-08-03T03:12:44;95640.16;;;17.86;71.24
38225;BME280;24025;48.138;11.428;2022-08-03T03:15:15;95646.75;;;17.81;71.70
38225;BME280;24025;48.138;11.428;2022-08-03T03:17:48;95642.94;;;17.79;71.29
38225;BME280;24025;48.138;11.428;2022-08-03T03:20:20;95641.41;;;17.78;71.57
38225;BME280;24025;48.138;11.428;2022-08-03T03:22:50;95641.84;;;17.76;71.73
38225;BME280;24025;48.138;11.428;2022-08-03T03:25:21;95637.59;;;17.75;71.46
38225;BME280;24025;48.138;11.428;2022-08-03T03:27:52;95636.47;;;17.73;71.71
38225;BME280;24025;48.138;11.428;2022-08-03T03:30:22;95637.22;;;17.73;71.53
38225;BME280;24025;48.138;11.428;2022-08-03T03:32:53;95639.16;;;17.73;71.39
38225;BME280;24025;48.138;11.428;2022-08-03T03:35:25;95639.56;;;17.71;71.18
38225;BME280;24025;48.138;11.428;2022-08-03T03:37:56;95637.28;;;17.70;71.46
38225;BME280;24025;48.138;11.428;2022-08-03T03:40:26;95641.88;;;17.69;71.80
38225;BME280;24025;48.138;11.428;2022-08-03T03:42:57;95635.34;;;17.70;71.41
38225;BME280;24025;48.138;11.428;2022-08-03T03:45:29;95641.13;;;17.69;71.52
38225;BME280;24025;48.138;11.428;2022-08-03T03:48:01;95638.06;;;17.67;71.74
38225;BME280;24025;48.138;11.428;2022-08-03T03:50:33;95641.91;;;17.66;71.57
38225;BME280;24025;48.138;11.428;2022-08-03T03:53:04;95640.41;;;17.65;71.42
38225;BME280;24025;48.138;11.428;2022-08-03T03:55:38;95640.84;;;17.60;72.07
38225;BME280;24025;48.138;11.428;2022-08-03T03:58:09;95636.22;;;17.60;71.98
38225;BME280;24025;48.138;11.428;2022-08-03T04:00:40;95642.03;;;17.59;71.66
38225;BME280;24025;48.138;11.428;2022-08-03T04:03:11;95636.25;;;17.56;71.77
38225;BME280;24025;48.138;11.428;2022-08-03T04:05:42;95640.53;;;17.54;71.88
38225;BME280;24025;48.138;11.428;2022-08-03T04:08:31;95642.06;;;17.55;71.52
38225;BME280;24025;48.138;11.428;2022-08-03T04:11:26;95643.59;;;17.56;71.67
38225;BME280;24025;48.138;11.428;2022-08-03T04:14:11;95641.66;;;17.56;71.74
38225;BME280;24025;48.138;11.428;2022-08-03T04:16:46;95646.66;;;17.58;71.71
38225;BME280;24025;48.138;11.428;2022-08-03T04:19:35;95651.25;;;17.61;71.60
38225;BME280;24025;48.138;11.428;2022-08-03T04:22:09;95652.41;;;17.60;71.82
38225;BME280;24025;48.138;11.428;2022-08-03T04:24:42;95642.03;;;17.59;71.91
38225;BME280;24025;48.138;11.428;2022-08-03T04:27:16;95650.97;;;17.52;72.13
38225;BME280;24025;48.138;11.428;2022-08-03T04:29:48;95659.81;;;17.52;72.09
38225;BME280;24025;48.138;11.428;2022-08-03T04:32:22;95652.41;;;17.60;72.15
38225;BME280;24025;48.138;11.428;2022-08-03T04:34:55;95653.47;;;17.66;72.11
38225;BME280;24025;48.138;11.428;2022-08-03T04:37:39;95657.31;;;17.69;72.00
38225;BME280;24025;48.138;11.428;2022-08-03T04:40:33;95654.22;;;17.70;72.07
38225;BME280;24025;48.138;11.428;2022-08-03T04:43:05;95653.41;;;17.73;71.83
38225;BME280;24025;48.138;11.428;2022-08-03T04:45:37;95658.03;;;17.76;71.76
38225;BME280;24025;48.138;11.428;2022-08-03T04:48:08;95655.63;;;17.82;71.69
38225;BME280;24025;48.138;11.428;2022-08-03T04:50:40;95657.88;;;17.87;71.72
38225;BME280;24025;48.138;11.428;2022-08-03T04:53:11;95657.41;;;17.92;71.85
38225;BME280;24025;48.138;11.428;2022-08-03T04:55:41;95664.22;;;18.00;71.50
38225;BME280;24025;48.138;11.428;2022-08-03T04:58:12;95662.25;;;18.04;71.42
38225;BME280;24025;48.138;11.428;2022-08-03T05:00:42;95661.41;;;18.11;71.28
38225;BME280;24025;48.138;11.428;2022-08-03T05:03:14;95668.59;;;18.21;71.03
38225;BME280;24025;48.138;11.428;2022-08-03T05:05:45;95664.72;;;18.22;71.05
38225;BME280;24025;48.138;11.428;2022-08-03T05:08:15;95664.97;;;18.31;70.84
38225;BME280;24025;48.138;11.428;2022-08-03T05:10:46;95669.84;;;18.40;70.69
38225;BME280;24025;48.138;11.428;2022-08-03T05:13:16;95673.56;;;18.50;69.79
38225;BME280;24025;48.138;11.428;2022-08-03T05:15:47;95679.59;;;18.57;70.23
38225;BME280;24025;48.138;11.428;2022-08-03T05:18:18;95682.19;;;18.64;69.55
38225;BME280;24025;48.138;11.428;2022-08-03T05:20:48;95687.56;;;18.68;68.41
38225;BME280;24025;48.138;11.428;2022-08-03T05:23:19;95680.16;;;18.72;68.22
38225;BME280;24025;48.138;11.428;2022-08-03T05:25:49;95686.31;;;18.73;67.72
38225;BME280;24025;48.138;11.428;2022-08-03T05:28:20;95682.41;;;18.77;67.99
38225;BME280;24025;48.138;11.428;2022-08-03T05:30:50;95679.94;;;18.86;68.16
38225;BME280;24025;48.138;11.428;2022-08-03T05:33:21;95687.97;;;18.90;67.73
38225;BME280;24025;48.138;11.428;2022-08-03T05:35:51;95682.44;;;18.97;67.69
38225;BME280;24025;48.138;11.428;2022-08-03T05:38:22;95686.88;;;19.07;67.49
38225;BME280;24025;48.138;11.428;2022-08-03T05:40:52;95676.03;;;19.11;67.37
38225;BME280;24025;48.138;11.428;2022-08-03T05:43:23;95684.81;;;19.15;67.37
38225;BME280;24025;48.138;11.428;2022-08-03T05:45:53;95680.19;;;19.15;67.63
38225;BME280;24025;48.138;11.428;2022-08-03T05:48:24;95683.94;;;19.21;66.96
38225;BME280;24025;48.138;11.428;2022-08-03T05:50:54;95678.41;;;19.29;66.97
38225;BME280;24025;48.138;11.428;2022-08-03T05:53:25;95675.22;;;19.34;66.55
38225;BME280;24025;48.138;11.428;2022-08-03T05:55:55;95681.66;;;19.40;66.91
38225;BME280;24025;48.138;11.428;2022-08-03T05:58:26;95682.31;;;19.47;66.20
38225;BME280;24025;48.138;11.428;2022-08-03T06:00:56;95683.16;;;19.64;65.78
38225;BME280;24025;48.138;11.428;2022-08-03T06:03:27;95676.78;;;19.74;65.24
38225;BME280;24025;48.138;11.428;2022-08-03T06:05:57;95685.94;;;19.80;65.00
38225;BME280;24025;48.138;11.428;2022-08-03T06:08:28;95683.13;;;19.84;64.73
38225;BME280;24025;48.138;11.428;2022-08-03T06:10:58;95689.19;;;19.92;64.57
38225;BME280;24025;48.138;11.428;2022-08-03T06:13:29;95690.22;;;19.98;64.88
38225;BME280;24025;48.138;11.428;2022-08-03T06:15:59;95695.13;;;20.03;64.61
38225;BME280;24025;48.138;11.428;2022-08-03T06:18:29;95693.88;;;20.07;65.25
38225;BME280;24025;48.138;11.428;2022-08-03T06:21:00;95700.31;;;20.14;64.51
38225;BME280;24025;48.138;11.428;2022-08-03T06:23:31;95693.47;;;20.25;63.66
38225;BME280;24025;48.138;11.428;2022-08-03T06:26:01;95694.84;;;20.33;63.88
38225;BME280;24025;48.138;11.428;2022-08-03T06:28:32;95692.81;;;20.37;63.51
38225;BME280;24025;48.138;11.428;2022-08-03T06:31:02;95694.63;;;20.44;63.35
38225;BME280;24025;48.138;11.428;2022-08-03T06:33:33;95701.47;;;20.49;63.05
38225;BME280;24025;48.138;11.428;2022-08-03T06:36:03;95704.56;;;20.51;63.90
38225;BME280;24025;48.138;11.428;2022-08-03T06:38:34;95700.91;;;20.57;63.65
38225;BME280;24025;48.138;11.428;2022-08-03T06:41:04;95697.34;;;20.60;63.00
38225;BME280;24025;48.138;11.428;2022-08-03T06:43:35;95696.41;;;20.67;62.92
38225;BME280;24025;48.138;11.428;2022-08-03T06:46:06;95699.72;;;20.75;63.12
38225;BME280;24025;48.138;11.428;2022-08-03T06:48:37;95703.03;;;20.82;62.86
38225;BME280;24025;48.138;11.428;2022-08-03T06:51:07;95700.47;;;20.91;62.70
38225;BME280;24025;48.138;11.428;2022-08-03T06:53:37;95703.78;;;20.99;62.97
38225;BME280;24025;48.138;11.428;2022-08-03T06:56:08;95700.47;;;21.08;61.95
38225;BME280;24025;48.138;11.428;2022-08-03T06:58:38;95696.38;;;21.16;61.16
38225;BME280;24025;48.138;11.428;2022-08-03T07:01:09;95698.47;;;21.25;61.25
38225;BME280;24025;48.138;11.428;2022-08-03T07:03:39;95699.09;;;21.32;60.83
38225;BME280;24025;48.138;11.428;2022-08-03T07:06:10;95701.19;;;21.41;60.85
38225;BME280;24025;48.138;11.428;2022-08-03T07:08:40;95697.41;;;21.51;59.75
38225;BME280;24025;48.138;11.428;2022-08-03T07:11:11;95692.13;;;21.60;59.80
38225;BME280;24025;48.138;11.428;2022-08-03T07:13:41;95689.66;;;21.66;59.76
38225;BME280;24025;48.138;11.428;2022-08-03T07:16:12;95693.34;;;21.72;58.78
38225;BME280;24025;48.138;11.428;2022-08-03T07:18:43;95690.13;;;21.77;58.11
38225;BME280;24025;48.138;11.428;2022-08-03T07:21:13;95691.13;;;21.83;58.12
38225;BME280;24025;48.138;11.428;2022-08-03T07:23:45;95689.72;;;21.91;57.64
38225;BME280;24025;48.138;11.428;2022-08-03T07:26:16;95687.66;;;21.95;56.73
38225;BME280;24025;48.138;11.428;2022-08-03T07:28:46;95684.41;;;22.00;56.56
38225;BME280;24025;48.138;11.428;2022-08-03T07:31:16;95685.81;;;22.05;56.29
38225;BME280;24025;48.138;11.428;2022-08-03T07:33:47;95678.69;;;22.11;55.81
38225;BME280;24025;48.138;11.428;2022-08-03T07:36:17;95675.00;;;22.18;56.28
38225;BME280;24025;48.138;11.428;2022-08-03T07:38:48;95680.97;;;22.25;56.05
38225;BME280;24025;48.138;11.428;2022-08-03T07:41:18;95679.47;;;22.37;56.45
38225;BME280;24025;48.138;11.428;2022-08-03T07:43:49;95662.16;;;22.44;56.47
38225;BME280;24025;48.138;11.428;2022-08-03T07:46:19;95670.09;;;22.51;56.03
38225;BME280;24025;48.138;11.428;2022-08-03T07:48:50;95678.34;;;22.60;56.15
38225;BME280;24025;48.138;11.428;2022-08-03T07:51:20;95668.44;;;22.66;55.74
38225;BME280;24025;48.138;11.428;2022-08-03T07:53:50;95668.97;;;22.74;55.19
38225;BME280;24025;48.138;11.428;2022-08-03T07:56:21;95672.22;;;22.81;54.77
38225;BME280;24025;48.138;11.428;2022-08-03T07:58:52;95672.78;;;22.89;53.84
38225;BME280;24025;48.138;11.428;2022-08-03T08:01:23;95671.66;;;22.99;53.87
38225;BME280;24025;48.138;11.428;2022-08-03T08:03:53;95671.44;;;23.06;54.13
38225;BME280;24025;48.138;11.428;2022-08-03T08:06:24;95669.66;;;23.12;52.88
38225;BME280;24025;48.138;11.428;2022-08-03T08:08:54;95665.50;;;23.21;52.24
38225;BME280;24025;48.138;11.428;2022-08-03T08:11:28;95656.94;;;23.31;52.98
38225;BME280;24025;48.138;11.428;2022-08-03T08:13:59;95665.19;;;23.40;52.62
38225;BME280;24025;48.138;11.428;2022-08-03T08:16:32;95662.09;;;23.51;52.19
38225;BME280;24025;48.138;11.428;2022-08-03T08:19:02;95659.34;;;23.64;50.53
38225;BME280;24025;48.138;11.428;2022-08-03T08:21:33;95658.81;;;23.78;50.93
38225;BME280;24025;48.138;11.428;2022-08-03T08:24:04;95656.00;;;23.91;50.30
38225;BME280;24025;48.138;11.428;2022-08-03T08:26:35;95658.47;;;23.98;49.54
38225;BME280;24025;48.138;11.428;2022-08-03T08:29:06;95665.63;;;24.05;49.60
38225;BME280;24025;48.138;11.428;2022-08-03T08:31:36;95663.06;;;24.10;49.54
38225;BME280;24025;48.138;11.428;2022-08-03T08:34:07;95661.47;;;24.22;49.00
38225;BME280;24025;48.138;11.428;2022-08-03T08:36:37;95662.28;;;24.32;48.83
38225;BME280;24025;48.138;11.428;2022-08-03T08:39:08;95669.75;;;24.40;49.14
38225;BME280;24025;48.138;11.428;2022-08-03T08:41:38;95660.50;;;24.47;46.83
38225;BME280;24025;48.138;11.428;2022-08-03T08:44:08;95664.34;;;24.58;48.13
38225;BME280;24025;48.138;11.428;2022-08-03T08:46:39;95664.50;;;24.73;47.21
38225;BME280;24025;48.138;11.428;2022-08-03T08:49:10;95661.97;;;24.88;47.92
38225;BME280;24025;48.138;11.428;2022-08-03T08:51:42;95660.78;;;24.98;46.57
38225;BME280;24025;48.138;11.428;2022-08-03T08:54:14;95654.13;;;25.08;46.79
38225;BME280;24025;48.138;11.428;2022-08-03T08:56:49;95653.25;;;25.11;46.11
38225;BME280;24025;48.138;11.428;2022-08-03T08:59:20;95650.06;;;25.22;46.44
38225;BME280;24025;48.138;11.428;2022-08-03T09:01:55;95646.09;;;25.32;45.46
38225;BME280;24025;48.138;11.428;2022-08-03T09:04:27;95647.59;;;25.42;45.21
38225;BME280;24025;48.138;11.428;2022-08-03T09:06:58;95644.56;;;25.50;45.37
38225;BME280;24025;48.138;11.428;2022-08-03T09:09:29;95642.00;;;25.55;44.08
38225;BME280;24025;48.138;11.428;2022-08-03T09:12:00;95648.78;;;25.69;44.56
38225;BME280;24025;48.138;11.428;2022-08-03T09:14:31;95640.31;;;25.76;44.53
38225;BME280;24025;48.138;11.428;2022-08-03T09:17:03;95641.97;;;25.83;44.35
38225;BME280;24025;48.138;11.428;2022-08-03T09:19:33;95647.88;;;25.90;44.42
38225;BME280;24025;48.138;11.428;2022-08-03T09:24:59;95639.59;;;26.09;43.62
38225;BME280;24025;48.138;11.428;2022-08-03T09:27:41;95647.31;;;26.19;43.35
38225;BME280;24025;48.138;11.428;2022-08-03T09:30:14;95636.81;;;26.27;43.16
38225;BME280;24025;48.138;11.428;2022-08-03T09:32:45;95639.50;;;26.36;42.62
38225;BME280;24025;48.138;11.428;2022-08-03T09:35:26;95633.25;;;26.45;41.10
38225;BME280;24025;48.138;11.428;2022-08-03T09:38:13;95640.66;;;26.53;41.49
38225;BME280;24025;48.138;11.428;2022-08-03T09:40:45;95641.63;;;26.65;39.95
38225;BME280;24025;48.138;11.428;2022-08-03T09:43:15;95652.38;;;26.78;40.01
38225;BME280;24025;48.138;11.428;2022-08-03T09:45:46;95643.97;;;26.81;39.00
38225;BME280;24025;48.138;11.428;2022-08-03T09:48:27;95637.97;;;26.92;38.39
38225;BME280;24025;48.138;11.428;2022-08-03T09:51:03;95641.41;;;27.02;38.34
38225;BME280;24025;48.138;11.428;2022-08-03T09:53:44;95646.38;;;27.13;37.69
38225;BME280;24025;48.138;11.428;2022-08-03T09:56:15;95652.25;;;27.20;37.67
38225;BME280;24025;48.138;11.428;2022-08-03T09:58:46;95638.03;;;27.31;37.41
38225;BME280;24025;48.138;11.428;2022-08-03T10:01:17;95641.72;;;27.43;38.25
38225;BME280;24025;48.138;11.428;2022-08-03T10:03:57;95635.59;;;27.48;37.81
38225;BME280;24025;48.138;11.428;2022-08-03T10:06:28;95638.53;;;27.59;37.32
38225;BME280;24025;48.138;11.428;2022-08-03T10:09:15;95636.97;;;27.67;36.24
38225;BME280;24025;48.138;11.428;2022-08-03T10:11:45;95631.09;;;27.74;36.47
38225;BME280;24025;48.138;11.428;2022-08-03T10:14:16;95639.88;;;27.78;36.75
38225;BME280;24025;48.138;11.428;2022-08-03T10:16:50;95632.09;;;27.91;34.73
38225;BME280;24025;48.138;11.428;2022-08-03T10:19:20;95628.91;;;27.93;34.51
38225;BME280;24025;48.138;11.428;2022-08-03T10:21:54;95625.31;;;28.02;33.49
38225;BME280;24025;48.138;11.428;2022-08-03T10:24:28;95624.03;;;28.17;36.09
38225;BME280;24025;48.138;11.428;2022-08-03T10:27:03;95623.38;;;28.22;34.58
38225;BME280;24025;48.138;11.428;2022-08-03T10:29:41;95622.91;;;28.24;33.18
38225;BME280;24025;48.138;11.428;2022-08-03T10:32:25;95621.31;;;28.32;33.79
38225;BME280;24025;48.138;11.428;2022-08-03T10:35:12;95618.16;;;28.39;34.21
38225;BME280;24025;48.138;11.428;2022-08-03T10:37:44;95624.28;;;28.49;33.54
38225;BME280;24025;48.138;11.428;2022-08-03T10:40:21;95624.72;;;28.62;34.13
38225;BME280;24025;48.138;11.428;2022-08-03T10:42:54;95619.56;;;28.70;32.84
38225;BME280;24025;48.138;11.428;2022-08-03T10:45:26;95626.66;;;28.76;31.55
38225;BME280;24025;48.138;11.428;2022-08-03T10:47:58;95615.81;;;28.88;30.97
38225;BME280;24025;48.138;11.428;2022-08-03T10:50:30;95611.50;;;28.81;30.12
38225;BME280;24025;48.138;11.428;2022-08-03T10:53:03;95607.13;;;28.89;31.52
38225;BME280;24025;48.138;11.428;2022-08-03T10:55:44;95601.22;;;28.96;29.90
38225;BME280;24025;48.138;11.428;2022-08-03T11:01:10;95588.97;;;28.97;31.13
38225;BME280;24025;48.138;11.428;2022-08-03T11:06:31;95592.41;;;29.13;32.11
38225;BME280;24025;48.138;11.428;2022-08-03T11:11:43;95593.44;;;29.41;32.03
38225;BME280;24025;48.138;11.428;2022-08-03T11:14:23;95602.50;;;29.47;29.97
38225;BME280;24025;48.138;11.428;2022-08-03T11:17:07;95597.13;;;29.58;30.30
38225;BME280;24025;48.138;11.428;2022-08-03T11:19:48;95590.03;;;29.72;31.15
38225;BME280;24025;48.138;11.428;2022-08-03T11:22:19;95594.34;;;29.84;30.42
38225;BME280;24025;48.138;11.428;2022-08-03T11:27:28;95583.16;;;29.88;28.39
38225;BME280;24025;48.138;11.428;2022-08-03T11:30:10;95590.47;;;29.97;28.81
38225;BME280;24025;48.138;11.428;2022-08-03T11:32:53;95595.84;;;30.11;29.74
38225;BME280;24025;48.138;11.428;2022-08-03T11:35:30;95595.44;;;30.24;29.33
38225;BME280;24025;48.138;11.428;2022-08-03T11:38:04;95591.25;;;30.34;28.22
38225;BME280;24025;48.138;11.428;2022-08-03T11:40:50;95583.03;;;30.45;28.64
38225;BME280;24025;48.138;11.428;2022-08-03T11:46:11;95575.91;;;30.65;26.86
38225;BME280;24025;48.138;11.428;2022-08-03T11:48:50;95570.44;;;30.70;27.92
38225;BME280;24025;48.138;11.428;2022-08-03T11:51:28;95576.22;;;30.78;26.49
38225;BME280;24025;48.138;11.428;2022-08-03T11:54:01;95576.97;;;30.79;27.42
38225;BME280;24025;48.138;11.428;2022-08-03T11:56:58;95576.78;;;30.93;26.76
38225;BME280;24025;48.138;11.428;2022-08-03T11:59:35;95576.78;;;30.99;28.59
38225;BME280;24025;48.138;11.428;2022-08-03T12:02:11;95574.56;;;31.09;27.19
38225;BME280;24025;48.138;11.428;2022-08-03T12:04:58;95566.56;;;31.16;27.24
38225;BME280;24025;48.138;11.428;2022-08-03T12:07:31;95554.56;;;31.19;25.23
38225;BME280;24025;48.138;11.428;2022-08-03T12:10:13;95562.13;;;31.24;27.03
38225;BME280;24025;48.138;11.428;2022-08-03T12:12:43;95555.63;;;31.33;26.58
38225;BME280;24025;48.138;11.428;2022-08-03T12:15:14;95558.63;;;31.35;26.05
38225;BME280;24025;48.138;11.428;2022-08-03T12:17:44;95552.03;;;31.16;24.70
38225;BME280;24025;48.138;11.428;2022-08-03T12:20:21;95546.28;;;31.14;24.95
38225;BME280;24025;48.138;11.428;2022-08-03T12:22:52;95548.03;;;31.17;26.03
38225;BME280;24025;48.138;11.428;2022-08-03T12:25:25;95546.34;;;31.31;26.70
38225;BME280;24025;48.138;11.428;2022-08-03T12:28:16;95550.63;;;31.43;27.18
38225;BME280;24025;48.138;11.428;2022-08-03T12:30:49;95539.59;;;31.60;26.36
38225;BME280;24025;48.138;11.428;2022-08-03T12:33:25;95549.13;;;31.75;25.96
38225;BME280;24025;48.138;11.428;2022-08-03T12:36:03;95548.63;;;31.88;26.38
38225;BME280;24025;48.138;11.428;2022-08-03T12:38:37;95543.38;;;31.84;24.41
38225;BME280;24025;48.138;11.428;2022-08-03T12:41:09;95536.88;;;31.82;24.88
38225;BME280;24025;48.138;11.428;2022-08-03T12:43:48;95543.63;;;31.87;23.91
38225;BME280;24025;48.138;11.428;2022-08-03T12:46:18;95537.09;;;31.73;25.22
38225;BME280;24025;48.138;11.428;2022-08-03T12:49:00;95532.09;;;31.88;26.49
38225;BME280;24025;48.138;11.428;2022-08-03T12:51:34;95535.59;;;32.00;26.48
38225;BME280;24025;48.138;11.428;2022-08-03T12:54:05;95530.53;;;32.15;26.87
38225;BME280;24025;48.138;11.428;2022-08-03T12:56:55;95531.78;;;32.31;26.36
38225;BME280;24025;48.138;11.428;2022-08-03T12:59:34;95530.53;;;32.37;24.78
38225;BME280;24025;48.138;11.428;2022-08-03T13:02:04;95532.25;;;32.46;25.32
38225;BME280;24025;48.138;11.428;2022-08-03T13:04:35;95532.28;;;32.35;24.67
38225;BME280;24025;48.138;11.428;2022-08-03T13:07:07;95532.25;;;32.46;25.64
38225;BME280;24025;48.138;11.428;2022-08-03T13:12:18;95528.03;;;32.17;24.05
38225;BME280;24025;48.138;11.428;2022-08-03T13:14:51;95526.75;;;32.24;24.57
38225;BME280;24025;48.138;11.428;2022-08-03T13:17:21;95532.03;;;32.38;24.92
38225;BME280;24025;48.138;11.428;2022-08-03T13:19:52;95528.22;;;32.47;24.69
38225;BME280;24025;48.138;11.428;2022-08-03T13:22:26;95529.44;;;32.63;24.78
38225;BME280;24025;48.138;11.428;2022-08-03T13:24:59;95529.44;;;32.63;24.78
38225;BME280;24025;48.138;11.428;2022-08-03T13:27:32;95526.91;;;32.59;23.25
38225;BME280;24025;48.138;11.428;2022-08-03T13:30:03;95521.84;;;32.75;24.49
38225;BME280;24025;48.138;11.428;2022-08-03T13:32:33;95520.78;;;32.83;23.08
38225;BME280;24025;48.138;11.428;2022-08-03T13:35:12;95524.56;;;32.91;24.09
38225;BME280;24025;48.138;11.428;2022-08-03T13:37:48;95527.75;;;33.07;23.50
38225;BME280;24025;48.138;11.428;2022-08-03T13:40:19;95529.44;;;33.15;22.79
38225;BME280;24025;48.138;11.428;2022-08-03T13:42:49;95520.13;;;33.18;22.83
38225;BME280;24025;48.138;11.428;2022-08-03T13:45:20;95514.13;;;33.14;23.06
38225;BME280;24025;48.138;11.428;2022-08-03T13:47:50;95509.56;;;33.17;23.22
38225;BME280;24025;48.138;11.428;2022-08-03T13:50:21;95504.25;;;33.24;23.02
38225;BME280;24025;48.138;11.428;2022-08-03T13:52:51;95505.91;;;33.39;22.71
38225;BME280;24025;48.138;11.428;2022-08-03T13:55:22;95499.81;;;33.51;22.66
38225;BME280;24025;48.138;11.428;2022-08-03T13:57:52;95500.34;;;33.44;21.25